sensor_id;sensor_type;location;lat;lon;timestamp;pressure;altitude;pressure_sealevel;temperature;humidity
36788;BME280;22738;45.560;9.434;2023-01-29T00:03:16;100595.25;;;2.45;100.00
36788;BME280;22738;45.560;9.434;2023-01-29T00:09:57;100599.69;;;2.34;100.00
36788;BME280;22738;45.560;9.434;2023-01-29T00:16:38;100610.84;;;2.30;100.00
36788;BME280;22738;45.560;9.434;2023-01-29T00:23:20;100606.72;;;2.23;100.00
36788;BME280;22738;45.560;9.434;2023-01-29T00:30:01;100618.69;;;2.23;100.00
36788;BME280;22738;45.560;9.434;2023-01-29T00:36:51;100614.56;;;2.12;100.00
36788;BME280;22738;45.560;9.434;2023-01-29T00:43:32;100616.50;;;1.98;100.00
36788;BME280;22738;45.560;9.434;2023-01-29T00:50:32;100603.84;;;1.91;100.00
36788;BME280;22738;45.560;9.434;2023-01-29T00:57:13;100602.94;;;1.93;100.00
36788;BME280;22738;45.560;9.434;2023-01-29T01:03:54;100603.84;;;1.91;100.00
36788;BME280;22738;45.560;9.434;2023-01-29T01:10:35;100608.13;;;1.89;100.00
36788;BME280;22738;45.560;9.434;2023-01-29T01:17:18;100615.91;;;1.83;100.00
36788;BME280;22738;45.560;9.434;2023-01-29T01:23:59;100611.75;;;1.76;100.00
36788;BME280;22738;45.560;9.434;2023-01-29T01:30:41;100617.84;;;1.69;100.00
36788;BME280;22738;45.560;9.434;2023-01-29T01:37:22;100616.31;;;1.59;100.00
36788;BME280;22738;45.560;9.434;2023-01-29T01:44:04;100618.84;;;1.57;100.00
36788;BME280;22738;45.560;9.434;2023-01-29T01:51:02;100623.97;;;1.59;100.00
36788;BME280;22738;45.560;9.434;2023-01-29T01:57:46;100620.53;;;1.61;100.00
36788;BME280;22738;45.560;9.434;2023-01-29T02:04:28;100622.22;;;1.59;100.00
36788;BME280;22738;45.560;9.434;2023-01-29T02:11:29;100614.56;;;1.59;100.00
36788;BME280;22738;45.560;9.434;2023-01-29T02:18:10;100618.03;;;1.57;100.00
36788;BME280;22738;45.560;9.434;2023-01-29T02:31:58;100625.63;;;1.61;100.00
36788;BME280;22738;45.560;9.434;2023-01-29T02:39:04;100634.22;;;1.56;100.00
36788;BME280;22738;45.560;9.434;2023-01-29T02:45:57;100642.72;;;1.55;100.00
36788;BME280;22738;45.560;9.434;2023-01-29T02:53:05;100641.16;;;1.48;100.00
36788;BME280;22738;45.560;9.434;2023-01-29T03:00:13;100641.34;;;1.34;100.00
36788;BME280;22738;45.560;9.434;2023-01-29T03:07:00;100644.00;;;1.26;100.00
36788;BME280;22738;45.560;9.434;2023-01-29T03:20:42;100643.50;;;0.97;100.00
36788;BME280;22738;45.560;9.434;2023-01-29T03:27:36;100645.28;;;0.92;100.00
36788;BME280;22738;45.560;9.434;2023-01-29T03:34:42;100647.94;;;0.80;100.00
36788;BME280;22738;45.560;9.434;2023-01-29T03:41:29;100645.47;;;0.74;100.00
36788;BME280;22738;45.560;9.434;2023-01-29T03:48:37;100646.28;;;0.79;100.00
36788;BME280;22738;45.560;9.434;2023-01-29T03:55:40;100654.78;;;0.78;100.00
36788;BME280;22738;45.560;9.434;2023-01-29T04:02:26;100655.00;;;0.58;100.00
36788;BME280;22738;45.560;9.434;2023-01-29T04:09:20;100656.69;;;0.59;100.00
36788;BME280;22738;45.560;9.434;2023-01-29T04:16:06;100655.50;;;0.91;100.00
36788;BME280;22738;45.560;9.434;2023-01-29T04:23:06;100651.00;;;1.09;100.00
36788;BME280;22738;45.560;9.434;2023-01-29T04:37:05;100661.06;;;1.21;100.00
36788;BME280;22738;45.560;9.434;2023-01-29T04:51:09;100666.25;;;1.15;100.00
36788;BME280;22738;45.560;9.434;2023-01-29T05:04:53;100661.38;;;0.97;100.00
36788;BME280;22738;45.560;9.434;2023-01-29T05:11:36;100663.22;;;0.86;100.00
36788;BME280;22738;45.560;9.434;2023-01-29T05:18:17;100664.03;;;0.88;100.00
36788;BME280;22738;45.560;9.434;2023-01-29T05:24:59;100665.75;;;0.88;100.00
36788;BME280;22738;45.560;9.434;2023-01-29T05:31:43;100671.59;;;0.97;100.00
36788;BME280;22738;45.560;9.434;2023-01-29T05:38:24;100671.41;;;1.09;100.00
36788;BME280;22738;45.560;9.434;2023-01-29T05:45:07;100681.69;;;1.06;100.00
36788;BME280;22738;45.560;9.434;2023-01-29T05:51:48;100678.22;;;1.10;100.00
36788;BME280;22738;45.560;9.434;2023-01-29T05:58:30;100678.31;;;1.04;100.00
36788;BME280;22738;45.560;9.434;2023-01-29T06:05:21;100678.31;;;1.04;100.00
36788;BME280;22738;45.560;9.434;2023-01-29T06:12:02;100700.50;;;0.96;100.00
36788;BME280;22738;45.560;9.434;2023-01-29T06:18:46;100699.78;;;0.85;100.00
36788;BME280;22738;45.560;9.434;2023-01-29T06:25:27;100718.59;;;0.73;100.00
36788;BME280;22738;45.560;9.434;2023-01-29T06:32:08;100710.94;;;0.75;100.00
36788;BME280;22738;45.560;9.434;2023-01-29T06:38:49;100714.47;;;0.63;100.00
36788;BME280;22738;45.560;9.434;2023-01-29T06:45:30;100735.56;;;0.79;100.00
36788;BME280;22738;45.560;9.434;2023-01-29T06:52:11;100729.53;;;0.88;100.00
36788;BME280;22738;45.560;9.434;2023-01-29T06:58:52;100743.88;;;0.96;100.00
36788;BME280;22738;45.560;9.434;2023-01-29T07:05:33;100750.66;;;1.02;100.00
36788;BME280;22738;45.560;9.434;2023-01-29T07:12:15;100764.13;;;1.13;100.00
36788;BME280;22738;45.560;9.434;2023-01-29T07:18:56;100778.44;;;1.29;100.00
36788;BME280;22738;45.560;9.434;2023-01-29T07:25:38;100786.78;;;1.41;100.00
36788;BME280;22738;45.560;9.434;2023-01-29T07:32:20;100780.84;;;1.39;100.00
36788;BME280;22738;45.560;9.434;2023-01-29T07:39:01;100790.06;;;1.53;100.00
36788;BME280;22738;45.560;9.434;2023-01-29T07:45:42;100794.16;;;1.67;100.00
36788;BME280;22738;45.560;9.434;2023-01-29T07:52:23;100803.28;;;1.85;100.00
36788;BME280;22738;45.560;9.434;2023-01-29T07:59:04;100808.78;;;2.18;100.00
36788;BME280;22738;45.560;9.434;2023-01-29T08:05:45;100811.84;;;2.45;100.00
36788;BME280;22738;45.560;9.434;2023-01-29T08:12:26;100827.75;;;4.39;100.00
36788;BME280;22738;45.560;9.434;2023-01-29T08:19:07;100842.19;;;9.19;100.00
36788;BME280;22738;45.560;9.434;2023-01-29T08:25:48;100845.13;;;10.99;98.22
36788;BME280;22738;45.560;9.434;2023-01-29T08:32:30;100859.69;;;12.81;75.64
36788;BME280;22738;45.560;9.434;2023-01-29T08:39:12;100885.22;;;13.04;70.55
36788;BME280;22738;45.560;9.434;2023-01-29T08:45:53;100894.81;;;12.72;66.81
36788;BME280;22738;45.560;9.434;2023-01-29T08:52:34;100894.97;;;13.60;58.26
36788;BME280;22738;45.560;9.434;2023-01-29T08:59:15;100897.31;;;13.65;60.20
36788;BME280;22738;45.560;9.434;2023-01-29T09:05:56;100908.13;;;14.84;56.27
36788;BME280;22738;45.560;9.434;2023-01-29T09:12:37;100909.38;;;14.38;57.41
36788;BME280;22738;45.560;9.434;2023-01-29T09:19:22;100904.31;;;13.78;57.73
36788;BME280;22738;45.560;9.434;2023-01-29T09:26:03;100904.97;;;11.30;72.75
36788;BME280;22738;45.560;9.434;2023-01-29T09:32:44;100902.91;;;10.67;93.00
36788;BME280;22738;45.560;9.434;2023-01-29T09:39:25;100910.66;;;11.03;79.49
36788;BME280;22738;45.560;9.434;2023-01-29T09:46:20;100905.06;;;12.75;78.63
36788;BME280;22738;45.560;9.434;2023-01-29T09:53:19;100899.88;;;12.75;70.69
36788;BME280;22738;45.560;9.434;2023-01-29T10:00:01;100891.69;;;11.71;73.71
36788;BME280;22738;45.560;9.434;2023-01-29T10:27:15;100869.94;;;9.56;96.51
36788;BME280;22738;45.560;9.434;2023-01-29T10:34:01;100866.91;;;9.26;100.00
36788;BME280;22738;45.560;9.434;2023-01-29T11:01:24;100824.66;;;9.25;100.00
36788;BME280;22738;45.560;9.434;2023-01-29T11:08:13;100801.31;;;9.27;100.00
36788;BME280;22738;45.560;9.434;2023-01-29T11:15:00;100786.38;;;8.93;100.00
36788;BME280;22738;45.560;9.434;2023-01-29T11:21:59;100770.56;;;9.01;100.00
36788;BME280;22738;45.560;9.434;2023-01-29T11:28:41;100757.28;;;8.88;100.00
36788;BME280;22738;45.560;9.434;2023-01-29T11:35:24;100744.56;;;8.84;100.00
36788;BME280;22738;45.560;9.434;2023-01-29T11:42:18;100737.44;;;8.48;100.00
36788;BME280;22738;45.560;9.434;2023-01-29T11:49:01;100733.22;;;8.24;100.00
36788;BME280;22738;45.560;9.434;2023-01-29T11:55:44;100722.09;;;8.22;100.00
36788;BME280;22738;45.560;9.434;2023-01-29T12:02:41;100718.63;;;8.23;100.00
36788;BME280;22738;45.560;9.434;2023-01-29T12:09:25;100709.56;;;8.13;100.00
36788;BME280;22738;45.560;9.434;2023-01-29T12:23:03;100703.56;;;8.34;100.00
36788;BME280;22738;45.560;9.434;2023-01-29T12:36:45;100667.28;;;8.37;100.00
36788;BME280;22738;45.560;9.434;2023-01-29T12:43:41;100666.78;;;8.70;100.00
36788;BME280;22738;45.560;9.434;2023-01-29T12:50:35;100654.44;;;8.76;100.00
36788;BME280;22738;45.560;9.434;2023-01-29T12:57:41;100646.22;;;8.87;100.00
36788;BME280;22738;45.560;9.434;2023-01-29T13:05:00;100624.38;;;8.74;100.00
36788;BME280;22738;45.560;9.434;2023-01-29T13:12:05;100610.78;;;8.50;100.00
36788;BME280;22738;45.560;9.434;2023-01-29T13:18:55;100610.81;;;8.69;100.00
36788;BME280;22738;45.560;9.434;2023-01-29T13:25:36;100587.69;;;8.86;100.00
36788;BME280;22738;45.560;9.434;2023-01-29T13:32:26;100590.19;;;8.87;100.00
36788;BME280;22738;45.560;9.434;2023-01-29T13:46:07;100574.53;;;8.72;100.00
36788;BME280;22738;45.560;9.434;2023-01-29T13:52:57;100566.19;;;8.84;100.00
36788;BME280;22738;45.560;9.434;2023-01-29T13:59:49;100560.13;;;8.85;100.00
36788;BME280;22738;45.560;9.434;2023-01-29T14:06:40;100563.63;;;8.84;100.00
36788;BME280;22738;45.560;9.434;2023-01-29T14:13:26;100565.91;;;8.71;100.00
36788;BME280;22738;45.560;9.434;2023-01-29T14:20:20;100554.38;;;8.59;100.00
36788;BME280;22738;45.560;9.434;2023-01-29T14:27:03;100542.38;;;8.58;100.00
36788;BME280;22738;45.560;9.434;2023-01-29T14:33:44;100528.91;;;8.71;100.00
36788;BME280;22738;45.560;9.434;2023-01-29T14:40:27;100525.09;;;8.59;100.00
36788;BME280;22738;45.560;9.434;2023-01-29T14:54:17;100519.13;;;8.58;100.00
36788;BME280;22738;45.560;9.434;2023-01-29T15:01:06;100516.66;;;8.55;100.00
36788;BME280;22738;45.560;9.434;2023-01-29T15:07:58;100513.16;;;8.56;100.00
36788;BME280;22738;45.560;9.434;2023-01-29T15:14:48;100520.56;;;8.45;100.00
36788;BME280;22738;45.560;9.434;2023-01-29T15:21:34;100518.53;;;8.33;100.00
36788;BME280;22738;45.560;9.434;2023-01-29T15:28:15;100516.28;;;8.26;100.00
36788;BME280;22738;45.560;9.434;2023-01-29T15:34:57;100521.88;;;8.15;100.00
36788;BME280;22738;45.560;9.434;2023-01-29T15:41:38;100537.09;;;8.01;100.00
36788;BME280;22738;45.560;9.434;2023-01-29T15:48:24;100535.94;;;7.88;100.00
36788;BME280;22738;45.560;9.434;2023-01-29T15:55:11;100522.09;;;7.69;100.00
36788;BME280;22738;45.560;9.434;2023-01-29T16:01:54;100529.63;;;7.53;100.00
36788;BME280;22738;45.560;9.434;2023-01-29T16:08:37;100521.78;;;7.35;100.00
36788;BME280;22738;45.560;9.434;2023-01-29T16:15:36;100526.88;;;7.14;100.00
36788;BME280;22738;45.560;9.434;2023-01-29T16:22:18;100520.81;;;6.94;100.00
36788;BME280;22738;45.560;9.434;2023-01-29T16:29:08;100532.50;;;6.79;100.00
36788;BME280;22738;45.560;9.434;2023-01-29T16:35:50;100535.66;;;6.64;100.00
36788;BME280;22738;45.560;9.434;2023-01-29T16:42:31;100547.41;;;6.48;100.00
36788;BME280;22738;45.560;9.434;2023-01-29T16:56:10;100561.94;;;6.26;100.00
36788;BME280;22738;45.560;9.434;2023-01-29T17:02:59;100555.53;;;6.13;100.00
36788;BME280;22738;45.560;9.434;2023-01-29T17:09:43;100566.28;;;5.99;100.00
36788;BME280;22738;45.560;9.434;2023-01-29T17:23:11;100564.59;;;5.72;100.00
36788;BME280;22738;45.560;9.434;2023-01-29T17:29:52;100569.91;;;5.66;100.00
36788;BME280;22738;45.560;9.434;2023-01-29T17:36:33;100573.56;;;5.59;100.00
36788;BME280;22738;45.560;9.434;2023-01-29T17:43:14;100579.69;;;5.27;100.00
36788;BME280;22738;45.560;9.434;2023-01-29T17:49:55;100576.94;;;5.05;100.00
36788;BME280;22738;45.560;9.434;2023-01-29T17:56:38;100580.97;;;4.85;100.00
36788;BME280;22738;45.560;9.434;2023-01-29T18:03:19;100580.13;;;4.54;100.00
36788;BME280;22738;45.560;9.434;2023-01-29T18:10:01;100579.84;;;4.33;100.00
36788;BME280;22738;45.560;9.434;2023-01-29T18:16:46;100589.41;;;4.27;100.00
36788;BME280;22738;45.560;9.434;2023-01-29T18:23:27;100599.22;;;4.11;100.00
36788;BME280;22738;45.560;9.434;2023-01-29T18:30:12;100590.81;;;4.06;100.00
36788;BME280;22738;45.560;9.434;2023-01-29T18:36:53;100584.22;;;3.96;100.00
36788;BME280;22738;45.560;9.434;2023-01-29T18:43:34;100574.94;;;3.91;100.00
36788;BME280;22738;45.560;9.434;2023-01-29T18:50:17;100580.50;;;3.73;100.00
36788;BME280;22738;45.560;9.434;2023-01-29T18:56:59;100582.84;;;3.46;100.00
36788;BME280;22738;45.560;9.434;2023-01-29T19:03:40;100582.97;;;3.42;100.00
36788;BME280;22738;45.560;9.434;2023-01-29T19:10:21;100577.03;;;3.40;100.00
36788;BME280;22738;45.560;9.434;2023-01-29T19:17:03;100590.84;;;3.33;100.00
36788;BME280;22738;45.560;9.434;2023-01-29T19:23:44;100590.34;;;3.17;100.00
36788;BME280;22738;45.560;9.434;2023-01-29T19:30:25;100591.06;;;3.24;100.00
36788;BME280;22738;45.560;9.434;2023-01-29T19:37:06;100591.66;;;3.35;100.00
36788;BME280;22738;45.560;9.434;2023-01-29T19:43:47;100591.88;;;3.26;100.00
36788;BME280;22738;45.560;9.434;2023-01-29T19:50:28;100599.69;;;3.20;100.00
36788;BME280;22738;45.560;9.434;2023-01-29T19:57:09;100588.09;;;3.04;100.00
36788;BME280;22738;45.560;9.434;2023-01-29T20:03:50;100595.53;;;2.74;100.00
36788;BME280;22738;45.560;9.434;2023-01-29T20:10:31;100590.75;;;2.56;100.00
36788;BME280;22738;45.560;9.434;2023-01-29T20:17:14;100591.28;;;2.29;100.00
36788;BME280;22738;45.560;9.434;2023-01-29T20:23:56;100602.91;;;2.45;100.00
36788;BME280;22738;45.560;9.434;2023-01-29T20:30:38;100613.03;;;2.51;100.00
36788;BME280;22738;45.560;9.434;2023-01-29T20:37:19;100599.41;;;2.49;100.00
36788;BME280;22738;45.560;9.434;2023-01-29T20:44:01;100599.47;;;2.46;100.00
36788;BME280;22738;45.560;9.434;2023-01-29T20:50:42;100592.91;;;2.33;100.00
36788;BME280;22738;45.560;9.434;2023-01-29T20:57:23;100601.38;;;2.35;100.00
36788;BME280;22738;45.560;9.434;2023-01-29T21:04:04;100601.66;;;2.20;100.00
36788;BME280;22738;45.560;9.434;2023-01-29T21:10:48;100598.28;;;2.18;100.00
36788;BME280;22738;45.560;9.434;2023-01-29T21:17:29;100601.31;;;1.89;100.00
36788;BME280;22738;45.560;9.434;2023-01-29T21:24:10;100593.53;;;1.97;100.00
36788;BME280;22738;45.560;9.434;2023-01-29T21:31:04;100605.25;;;2.10;100.00
36788;BME280;22738;45.560;9.434;2023-01-29T21:37:45;100593.22;;;2.15;100.00
36788;BME280;22738;45.560;9.434;2023-01-29T21:44:27;100598.38;;;2.12;100.00
36788;BME280;22738;45.560;9.434;2023-01-29T21:51:08;100594.22;;;2.06;100.00
36788;BME280;22738;45.560;9.434;2023-01-29T21:57:49;100589.81;;;1.66;100.00
36788;BME280;22738;45.560;9.434;2023-01-29T22:04:32;100587.16;;;1.70;100.00
36788;BME280;22738;45.560;9.434;2023-01-29T22:11:13;100587.16;;;1.70;100.00
36788;BME280;22738;45.560;9.434;2023-01-29T22:17:54;100581.47;;;1.53;100.00
36788;BME280;22738;45.560;9.434;2023-01-29T22:24:35;100577.25;;;1.51;100.00
36788;BME280;22738;45.560;9.434;2023-01-29T22:31:16;100574.66;;;1.54;100.00
36788;BME280;22738;45.560;9.434;2023-01-29T22:37:57;100578.91;;;1.53;100.00
36788;BME280;22738;45.560;9.434;2023-01-29T22:44:38;100577.41;;;1.40;100.00
36788;BME280;22738;45.560;9.434;2023-01-29T22:51:19;100566.44;;;1.32;100.00
36788;BME280;22738;45.560;9.434;2023-01-29T22:58:00;100574.25;;;1.23;100.00
36788;BME280;22738;45.560;9.434;2023-01-29T23:04:41;100563.28;;;1.18;100.00
36788;BME280;22738;45.560;9.434;2023-01-29T23:11:23;100559.22;;;1.03;100.00
36788;BME280;22738;45.560;9.434;2023-01-29T23:18:04;100552.50;;;0.96;100.00
36788;BME280;22738;45.560;9.434;2023-01-29T23:24:46;100556.00;;;0.91;100.00
36788;BME280;22738;45.560;9.434;2023-01-29T23:31:27;100557.69;;;0.90;100.00
36788;BME280;22738;45.560;9.434;2023-01-29T23:38:08;100550.25;;;0.73;100.00
36788;BME280;22738;45.560;9.434;2023-01-29T23:44:49;100549.38;;;0.76;100.00
36788;BME280;22738;45.560;9.434;2023-01-29T23:51:30;100554.38;;;0.82;100.00
36788;BME280;22738;45.560;9.434;2023-01-29T23:58:11;100539.41;;;0.56;100.00
